Time;durP1;ratioP1;P1;durP2;ratioP2;P2;SDS_P1;SDS_P2;PMS_P1;PMS_P2;Temp;Humidity;BMP_temperature;BMP_pressure;BME280_temperature;BME280_humidity;BME280_pressure;Samples;Min_cycle;Max_cycle;Signal;HPM_P1;HPM_P2
2022/03/07 00:00:21;;;;;;;25.98;14.65;;;;;;;;;;5040548;28;20033;-75
2022/03/07 00:02:48;;;;;;;23.88;13.70;;;;;;;;;;5036816;28;20506;-75
2022/03/07 00:05:15;;;;;;;31.92;15.18;;;;;;;;;;5039975;28;20521;-76
2022/03/07 00:07:42;;;;;;;32.63;16.40;;;;;;;;;;5038035;28;20396;-75
2022/03/07 00:10:08;;;;;;;22.48;13.05;;;;;;;;;;5037193;28;20040;-75
2022/03/07 00:12:35;;;;;;;27.27;15.23;;;;;;;;;;5037165;28;20018;-75
2022/03/07 00:15:01;;;;;;;25.13;14.85;;;;;;;;;;5035442;28;20220;-75
2022/03/07 00:17:27;;;;;;;24.52;13.75;;;;;;;;;;5033140;28;20025;-75
2022/03/07 00:19:54;;;;;;;26.00;13.98;;;;;;;;;;5038857;28;20029;-75
2022/03/07 00:22:20;;;;;;;27.70;14.95;;;;;;;;;;5035578;28;20027;-75
2022/03/07 00:24:46;;;;;;;24.27;14.02;;;;;;;;;;5036817;28;20032;-75
2022/03/07 00:27:13;;;;;;;25.83;14.52;;;;;;;;;;5035593;28;20031;-75
2022/03/07 00:29:39;;;;;;;28.58;15.85;;;;;;;;;;5031124;28;20020;-75
2022/03/07 00:32:06;;;;;;;26.88;14.80;;;;;;;;;;5037167;28;20036;-75
2022/03/07 00:34:32;;;;;;;28.48;14.57;;;;;;;;;;5036066;28;20662;-75
2022/03/07 00:36:58;;;;;;;28.70;14.55;;;;;;;;;;5036563;28;20064;-75
2022/03/07 00:39:24;;;;;;;47.70;21.63;;;;;;;;;;5036434;28;20025;-75
2022/03/07 00:41:51;;;;;;;32.28;15.55;;;;;;;;;;5033026;28;20059;-75
2022/03/07 00:44:17;;;;;;;28.92;14.00;;;;;;;;;;5036351;28;20394;-75
2022/03/07 00:46:44;;;;;;;25.92;13.75;;;;;;;;;;5036880;28;20489;-74
2022/03/07 00:49:10;;;;;;;27.05;14.43;;;;;;;;;;5036297;28;20040;-75
2022/03/07 00:51:36;;;;;;;23.98;14.52;;;;;;;;;;5036300;28;20025;-75
2022/03/07 00:54:03;;;;;;;22.45;13.82;;;;;;;;;;5033828;28;20021;-75
2022/03/07 00:56:29;;;;;;;25.92;14.23;;;;;;;;;;5033315;28;20486;-75
2022/03/07 00:58:56;;;;;;;24.88;14.60;;;;;;;;;;5038033;28;20033;-75
2022/03/07 01:01:22;;;;;;;23.45;13.80;;;;;;;;;;5035667;28;20035;-75
2022/03/07 01:03:50;;;;;;;24.30;13.63;;;;;;;;;;5036320;28;20030;-75
2022/03/07 01:06:16;;;;;;;20.50;12.55;;;;;;;;;;5034689;28;20037;-75
2022/03/07 01:08:43;;;;;;;25.35;13.65;;;;;;;;;;5030479;28;20021;-75
2022/03/07 01:11:10;;;;;;;21.85;13.30;;;;;;;;;;5037766;28;20029;-75
2022/03/07 01:13:37;;;;;;;25.17;13.27;;;;;;;;;;5034475;28;20036;-75
2022/03/07 01:16:03;;;;;;;26.52;13.98;;;;;;;;;;5035485;28;20043;-75
2022/03/07 01:18:29;;;;;;;26.42;14.45;;;;;;;;;;5035584;28;20410;-75
2022/03/07 01:20:56;;;;;;;31.15;16.02;;;;;;;;;;5033315;28;20029;-75
2022/03/07 01:23:22;;;;;;;26.10;14.57;;;;;;;;;;5034291;28;20034;-75
2022/03/07 01:25:48;;;;;;;24.60;13.93;;;;;;;;;;5037200;28;20025;-75
2022/03/07 01:28:15;;;;;;;27.23;15.05;;;;;;;;;;5034630;28;20116;-75
2022/03/07 01:30:41;;;;;;;30.73;16.13;;;;;;;;;;5035129;28;20027;-75
2022/03/07 01:33:08;;;;;;;31.00;17.02;;;;;;;;;;5034724;28;20393;-75
2022/03/07 01:35:34;;;;;;;27.88;15.50;;;;;;;;;;5031841;28;20497;-75
2022/03/07 01:38:00;;;;;;;24.98;14.15;;;;;;;;;;5037379;28;20037;-75
2022/03/07 01:40:27;;;;;;;34.70;18.55;;;;;;;;;;5035190;28;20050;-75
2022/03/07 01:42:54;;;;;;;32.47;16.80;;;;;;;;;;5035456;28;20028;-75
2022/03/07 01:45:20;;;;;;;25.15;14.63;;;;;;;;;;5033589;28;20032;-75
2022/03/07 01:47:47;;;;;;;26.05;14.38;;;;;;;;;;5029988;28;20033;-75
2022/03/07 01:50:15;;;;;;;30.05;16.73;;;;;;;;;;5035819;28;20029;-75
2022/03/07 01:52:44;;;;;;;32.60;15.85;;;;;;;;;;5034278;28;20026;-75
2022/03/07 01:55:11;;;;;;;25.70;14.15;;;;;;;;;;5034924;28;20021;-74
2022/03/07 01:57:38;;;;;;;26.67;14.52;;;;;;;;;;5035109;28;20025;-75
2022/03/07 02:00:09;;;;;;;24.75;13.55;;;;;;;;;;5032209;28;20025;-75
2022/03/07 02:02:36;;;;;;;24.63;14.18;;;;;;;;;;5062871;28;20041;-75
2022/03/07 02:05:03;;;;;;;25.95;14.25;;;;;;;;;;5036777;28;20021;-75
2022/03/07 02:07:30;;;;;;;21.30;13.38;;;;;;;;;;5034705;28;20037;-75
2022/03/07 02:09:57;;;;;;;29.30;15.63;;;;;;;;;;5034689;28;20018;-74
2022/03/07 02:12:23;;;;;;;27.67;14.85;;;;;;;;;;5034772;28;20043;-75
2022/03/07 02:14:50;;;;;;;25.00;14.10;;;;;;;;;;5031333;28;20032;-75
2022/03/07 02:17:17;;;;;;;26.17;14.85;;;;;;;;;;5033443;28;20491;-75
2022/03/07 02:19:43;;;;;;;31.67;14.13;;;;;;;;;;5035223;28;20029;-75
2022/03/07 02:22:10;;;;;;;27.05;14.60;;;;;;;;;;5034435;28;20029;-75
2022/03/07 02:24:37;;;;;;;24.35;12.82;;;;;;;;;;5033380;28;20079;-75
2022/03/07 02:27:07;;;;;;;25.00;13.82;;;;;;;;;;5031669;28;20512;-75
2022/03/07 02:29:34;;;;;;;23.08;13.15;;;;;;;;;;5030327;28;20424;-74
2022/03/07 02:32:01;;;;;;;26.05;14.35;;;;;;;;;;5036132;28;20029;-74
2022/03/07 02:34:27;;;;;;;27.75;13.75;;;;;;;;;;5034430;28;20022;-75
2022/03/07 02:36:54;;;;;;;23.95;13.32;;;;;;;;;;5034490;28;20033;-74
2022/03/07 02:39:20;;;;;;;24.83;14.05;;;;;;;;;;5034481;28;20031;-75
2022/03/07 02:41:47;;;;;;;29.60;13.70;;;;;;;;;;5030474;28;20530;-75
2022/03/07 02:44:14;;;;;;;24.75;13.93;;;;;;;;;;5034595;28;20025;-75
2022/03/07 02:46:40;;;;;;;24.17;13.55;;;;;;;;;;5034881;28;20100;-75
2022/03/07 02:49:07;;;;;;;25.45;13.60;;;;;;;;;;5034325;28;20014;-75
2022/03/07 02:51:34;;;;;;;24.85;13.65;;;;;;;;;;5034427;28;20048;-74
2022/03/07 02:54:00;;;;;;;27.60;14.90;;;;;;;;;;5032497;28;20059;-75
2022/03/07 02:56:27;;;;;;;25.55;13.43;;;;;;;;;;5031294;28;20030;-75
2022/03/07 02:58:53;;;;;;;28.77;13.85;;;;;;;;;;5036048;28;20037;-75
2022/03/07 03:01:20;;;;;;;25.00;14.30;;;;;;;;;;5033987;28;20494;-74
2022/03/07 03:03:46;;;;;;;23.60;14.13;;;;;;;;;;5032682;28;20437;-74
2022/03/07 03:06:12;;;;;;;24.08;13.32;;;;;;;;;;5032845;28;20032;-75
2022/03/07 03:08:39;;;;;;;23.50;13.52;;;;;;;;;;5030125;28;20032;-74
2022/03/07 03:11:05;;;;;;;27.20;14.55;;;;;;;;;;5036109;28;20041;-74
2022/03/07 03:13:32;;;;;;;26.23;13.63;;;;;;;;;;5033777;28;20021;-74
2022/03/07 03:15:58;;;;;;;24.33;13.75;;;;;;;;;;5033961;28;20036;-75
2022/03/07 03:18:24;;;;;;;22.67;13.10;;;;;;;;;;5034024;28;20039;-74
2022/03/07 03:20:51;;;;;;;23.30;13.40;;;;;;;;;;5029716;28;20034;-74
2022/03/07 03:23:18;;;;;;;26.30;14.20;;;;;;;;;;5032353;28;20033;-75
2022/03/07 03:25:45;;;;;;;23.45;13.75;;;;;;;;;;5035221;28;20026;-74
2022/03/07 03:28:12;;;;;;;24.52;13.85;;;;;;;;;;5033875;28;20021;-75
2022/03/07 03:30:38;;;;;;;25.50;13.32;;;;;;;;;;5033986;28;20021;-75
2022/03/07 03:33:04;;;;;;;28.27;13.93;;;;;;;;;;5033127;28;20035;-74
2022/03/07 03:35:31;;;;;;;26.65;14.82;;;;;;;;;;5030429;28;24054;-75
2022/03/07 03:37:57;;;;;;;27.33;14.48;;;;;;;;;;5036001;28;20032;-74
2022/03/07 03:40:24;;;;;;;26.17;14.60;;;;;;;;;;5033676;28;20046;-75
2022/03/07 03:42:50;;;;;;;25.83;14.52;;;;;;;;;;5033577;28;20509;-74
2022/03/07 03:45:17;;;;;;;28.67;15.23;;;;;;;;;;5035971;28;20074;-75
2022/03/07 03:47:43;;;;;;;26.05;13.75;;;;;;;;;;5033476;28;20036;-75
2022/03/07 03:50:11;;;;;;;22.67;13.20;;;;;;;;;;5039219;28;20022;-74
2022/03/07 03:52:38;;;;;;;25.35;13.98;;;;;;;;;;5037772;28;20516;-74
2022/03/07 03:55:05;;;;;;;25.88;13.60;;;;;;;;;;5037387;28;20026;-74
2022/03/07 03:57:32;;;;;;;25.45;14.05;;;;;;;;;;5037634;28;20029;-74
2022/03/07 03:59:58;;;;;;;25.35;13.63;;;;;;;;;;5035492;28;20036;-75
2022/03/07 04:02:24;;;;;;;25.92;14.02;;;;;;;;;;5034825;28;20413;-75
2022/03/07 04:04:51;;;;;;;26.85;14.20;;;;;;;;;;5036992;28;20025;-74
2022/03/07 04:07:17;;;;;;;23.63;13.55;;;;;;;;;;5037020;28;20035;-75
2022/03/07 04:09:44;;;;;;;26.80;14.48;;;;;;;;;;5036809;28;20487;-74
2022/03/07 04:12:10;;;;;;;28.40;13.90;;;;;;;;;;5036614;28;20031;-74
2022/03/07 04:14:37;;;;;;;25.70;13.18;;;;;;;;;;5032867;28;20041;-74
2022/03/07 04:17:03;;;;;;;26.85;14.15;;;;;;;;;;5039226;28;20024;-74
2022/03/07 04:19:29;;;;;;;25.15;13.48;;;;;;;;;;5035641;28;20375;-74
2022/03/07 04:21:56;;;;;;;25.27;13.18;;;;;;;;;;5035269;28;20030;-74
2022/03/07 04:24:22;;;;;;;26.95;13.63;;;;;;;;;;5034944;28;20035;-74
2022/03/07 04:26:49;;;;;;;27.25;13.88;;;;;;;;;;5033925;28;20025;-74
2022/03/07 04:29:15;;;;;;;23.13;14.05;;;;;;;;;;5036883;28;20025;-74
2022/03/07 04:31:42;;;;;;;26.25;12.98;;;;;;;;;;5037364;28;20029;-74
2022/03/07 04:34:09;;;;;;;23.05;12.90;;;;;;;;;;5036673;28;20051;-74
2022/03/07 04:36:38;;;;;;;25.73;14.07;;;;;;;;;;5035331;28;20017;-74
2022/03/07 04:39:05;;;;;;;27.58;13.95;;;;;;;;;;5035341;28;20021;-74
2022/03/07 04:41:31;;;;;;;25.05;13.52;;;;;;;;;;5032921;28;20095;-74
2022/03/07 04:43:59;;;;;;;21.85;13.05;;;;;;;;;;5038171;28;20045;-74
2022/03/07 04:46:26;;;;;;;22.30;12.95;;;;;;;;;;5036345;28;20022;-74
2022/03/07 04:48:52;;;;;;;28.55;13.52;;;;;;;;;;5036438;28;20509;-74
2022/03/07 04:51:19;;;;;;;28.70;14.23;;;;;;;;;;5036248;28;20033;-74
2022/03/07 04:53:45;;;;;;;25.98;14.07;;;;;;;;;;5031720;28;20028;-74
2022/03/07 04:56:12;;;;;;;24.08;13.32;;;;;;;;;;5036026;28;20025;-74
2022/03/07 04:58:38;;;;;;;23.75;12.93;;;;;;;;;;5035571;28;20026;-74
2022/03/07 05:01:06;;;;;;;26.90;13.70;;;;;;;;;;5034882;28;20015;-74
2022/03/07 05:03:32;;;;;;;26.45;13.77;;;;;;;;;;5034692;28;20498;-75
2022/03/07 05:05:59;;;;;;;24.48;13.98;;;;;;;;;;5034135;28;20028;-75
2022/03/07 05:08:25;;;;;;;24.42;13.57;;;;;;;;;;5033271;28;20033;-75
2022/03/07 05:10:51;;;;;;;31.50;14.77;;;;;;;;;;5036139;28;20037;-74
2022/03/07 05:13:18;;;;;;;25.20;13.30;;;;;;;;;;5035840;28;20032;-75
2022/03/07 05:15:44;;;;;;;25.08;13.70;;;;;;;;;;5035974;28;20029;-74
2022/03/07 05:18:11;;;;;;;27.75;14.38;;;;;;;;;;5035417;28;20017;-74
2022/03/07 05:20:37;;;;;;;27.13;14.02;;;;;;;;;;5031364;28;20103;-74
2022/03/07 05:23:04;;;;;;;27.60;13.65;;;;;;;;;;5037310;28;20033;-75
2022/03/07 05:25:30;;;;;;;25.08;14.57;;;;;;;;;;5034392;28;20030;-75
2022/03/07 05:27:56;;;;;;;24.00;13.68;;;;;;;;;;5035555;28;20018;-75
2022/03/07 05:30:23;;;;;;;25.10;13.55;;;;;;;;;;5035597;28;20405;-74
2022/03/07 05:32:51;;;;;;;22.35;12.88;;;;;;;;;;5032261;28;20372;-74
2022/03/07 05:35:18;;;;;;;23.33;12.88;;;;;;;;;;5035262;28;20376;-75
2022/03/07 05:37:44;;;;;;;26.20;14.25;;;;;;;;;;5036479;28;20017;-74
2022/03/07 05:40:11;;;;;;;24.33;13.13;;;;;;;;;;5033925;28;20060;-74
2022/03/07 05:42:38;;;;;;;27.40;14.18;;;;;;;;;;5033985;28;20030;-74
2022/03/07 05:45:06;;;;;;;27.88;14.82;;;;;;;;;;5034192;28;20074;-74
2022/03/07 05:47:32;;;;;;;29.17;14.93;;;;;;;;;;5032097;28;20032;-75
2022/03/07 05:49:59;;;;;;;23.73;13.88;;;;;;;;;;5069155;28;20509;-74
2022/03/07 05:52:25;;;;;;;25.42;14.05;;;;;;;;;;5034849;28;20503;-75
2022/03/07 05:54:51;;;;;;;24.63;13.02;;;;;;;;;;5035109;28;20033;-74
2022/03/07 05:57:18;;;;;;;25.35;14.30;;;;;;;;;;5035267;28;20020;-74
2022/03/07 05:59:44;;;;;;;29.35;14.65;;;;;;;;;;5029879;28;20022;-74
2022/03/07 06:02:10;;;;;;;25.67;14.15;;;;;;;;;;5036076;28;20041;-74
2022/03/07 06:04:37;;;;;;;26.90;13.85;;;;;;;;;;5034776;28;20035;-75
2022/03/07 06:07:03;;;;;;;26.13;15.02;;;;;;;;;;5034553;28;20022;-74
2022/03/07 06:09:30;;;;;;;28.67;13.95;;;;;;;;;;5035084;28;20079;-74
2022/03/07 06:11:56;;;;;;;24.52;13.48;;;;;;;;;;5031130;28;20030;-74
2022/03/07 06:14:22;;;;;;;29.10;14.27;;;;;;;;;;5033336;28;20029;-75
2022/03/07 06:16:49;;;;;;;29.70;16.13;;;;;;;;;;5036231;28;20124;-74
2022/03/07 06:19:15;;;;;;;32.05;15.82;;;;;;;;;;5033274;28;20047;-74
2022/03/07 06:21:41;;;;;;;36.60;17.58;;;;;;;;;;5032785;28;20034;-74
2022/03/07 06:24:08;;;;;;;31.67;15.80;;;;;;;;;;5034160;28;20027;-75
2022/03/07 06:26:35;;;;;;;32.83;16.10;;;;;;;;;;5030659;28;20529;-75
2022/03/07 06:29:02;;;;;;;31.65;17.08;;;;;;;;;;5036581;28;20032;-74
2022/03/07 06:31:29;;;;;;;31.98;16.25;;;;;;;;;;5034415;28;20524;-75
2022/03/07 06:33:55;;;;;;;31.20;15.65;;;;;;;;;;5034352;28;20026;-74
2022/03/07 06:36:22;;;;;;;28.45;14.63;;;;;;;;;;5034215;28;20029;-75
2022/03/07 06:38:48;;;;;;;35.70;15.95;;;;;;;;;;5029817;28;20036;-74
2022/03/07 06:41:14;;;;;;;28.73;14.70;;;;;;;;;;5034604;28;20053;-75
2022/03/07 06:43:41;;;;;;;28.48;14.48;;;;;;;;;;5035080;28;20022;-74
2022/03/07 06:46:07;;;;;;;27.00;14.93;;;;;;;;;;5034192;28;20018;-75
2022/03/07 06:48:35;;;;;;;30.50;15.35;;;;;;;;;;5033289;28;20082;-75
2022/03/07 06:51:01;;;;;;;29.73;14.63;;;;;;;;;;5032324;28;20040;-75
2022/03/07 06:53:28;;;;;;;26.70;13.82;;;;;;;;;;5031496;28;20030;-75
2022/03/07 06:55:54;;;;;;;25.48;13.88;;;;;;;;;;5036143;28;20035;-75
2022/03/07 06:58:21;;;;;;;26.25;13.50;;;;;;;;;;5032850;28;20416;-75
2022/03/07 07:00:48;;;;;;;26.95;13.80;;;;;;;;;;5032598;28;20048;-75
2022/03/07 07:03:14;;;;;;;21.40;13.15;;;;;;;;;;5032875;28;20025;-75
2022/03/07 07:05:41;;;;;;;27.55;13.60;;;;;;;;;;5029795;28;20026;-75
2022/03/07 07:08:07;;;;;;;24.08;13.18;;;;;;;;;;5041787;28;20407;-75
2022/03/07 07:10:34;;;;;;;25.48;13.50;;;;;;;;;;5036941;28;20509;-75
2022/03/07 07:13:00;;;;;;;30.02;14.65;;;;;;;;;;5034481;28;20491;-75
2022/03/07 07:15:26;;;;;;;24.05;13.93;;;;;;;;;;5033781;28;20498;-76
2022/03/07 07:17:53;;;;;;;27.42;13.80;;;;;;;;;;5034556;28;20028;-75
2022/03/07 07:20:19;;;;;;;25.38;13.70;;;;;;;;;;5048720;28;20025;-75
2022/03/07 07:22:45;;;;;;;25.67;13.80;;;;;;;;;;5038962;28;20040;-75
2022/03/07 07:25:12;;;;;;;27.25;14.18;;;;;;;;;;5040155;28;20374;-73
2022/03/07 07:27:39;;;;;;;30.65;14.90;;;;;;;;;;5040147;28;20414;-75
2022/03/07 07:30:07;;;;;;;23.60;13.13;;;;;;;;;;5035703;28;20050;-75
2022/03/07 07:32:34;;;;;;;24.23;13.75;;;;;;;;;;5033376;28;20022;-75
2022/03/07 07:35:00;;;;;;;24.17;14.10;;;;;;;;;;5039222;28;20022;-75
2022/03/07 07:37:27;;;;;;;25.50;12.68;;;;;;;;;;5034792;28;20022;-76
2022/03/07 07:39:53;;;;;;;24.10;13.18;;;;;;;;;;5039389;28;20029;-76
2022/03/07 07:42:20;;;;;;;26.48;13.80;;;;;;;;;;5046288;28;20040;-76
2022/03/07 07:44:46;;;;;;;27.73;13.70;;;;;;;;;;5035031;28;20038;-76
2022/03/07 07:47:12;;;;;;;28.05;14.07;;;;;;;;;;5049541;28;20028;-76
2022/03/07 07:49:39;;;;;;;23.10;13.27;;;;;;;;;;5036952;28;20178;-76
2022/03/07 07:52:05;;;;;;;22.08;13.55;;;;;;;;;;5036772;28;20036;-76
2022/03/07 07:54:32;;;;;;;24.13;13.60;;;;;;;;;;5036954;28;20029;-76
2022/03/07 07:56:58;;;;;;;25.63;13.70;;;;;;;;;;5033086;28;20401;-77
2022/03/07 07:59:25;;;;;;;23.98;13.65;;;;;;;;;;5044275;28;20446;-76
2022/03/07 08:01:51;;;;;;;23.13;13.77;;;;;;;;;;5040364;28;20387;-76
2022/03/07 08:04:17;;;;;;;20.95;13.50;;;;;;;;;;5042021;28;20054;-76
2022/03/07 08:06:44;;;;;;;22.73;13.88;;;;;;;;;;5047596;28;20074;-77
2022/03/07 08:09:10;;;;;;;18.95;12.88;;;;;;;;;;5035843;28;20017;-76
2022/03/07 08:11:37;;;;;;;20.90;12.43;;;;;;;;;;5042977;28;20017;-76
2022/03/07 08:14:03;;;;;;;19.33;12.80;;;;;;;;;;5041555;28;20016;-76
2022/03/07 08:16:29;;;;;;;18.65;12.30;;;;;;;;;;5037182;28;20398;-76
2022/03/07 08:18:56;;;;;;;19.05;12.40;;;;;;;;;;5034937;28;20025;-76
2022/03/07 08:21:25;;;;;;;18.77;11.95;;;;;;;;;;5032613;28;20129;-77
2022/03/07 08:23:54;;;;;;;17.30;12.20;;;;;;;;;;5032442;28;20025;-81
2022/03/07 08:26:22;;;;;;;16.48;12.25;;;;;;;;;;5034337;28;20516;-77
2022/03/07 08:28:48;;;;;;;17.77;12.77;;;;;;;;;;5030860;28;20529;-75
2022/03/07 08:31:14;;;;;;;20.60;11.93;;;;;;;;;;5031133;28;20032;-76
2022/03/07 08:33:41;;;;;;;20.10;13.00;;;;;;;;;;5034859;28;20036;-76
2022/03/07 08:36:07;;;;;;;20.63;13.20;;;;;;;;;;5039300;28;20043;-77
2022/03/07 08:38:34;;;;;;;18.70;13.20;;;;;;;;;;5038295;28;20029;-77
2022/03/07 08:41:01;;;;;;;19.70;13.52;;;;;;;;;;5050981;28;20525;-77
2022/03/07 08:43:27;;;;;;;20.98;13.02;;;;;;;;;;5037927;28;20029;-77
2022/03/07 08:45:54;;;;;;;18.58;14.05;;;;;;;;;;5036162;28;20031;-77
2022/03/07 08:48:20;;;;;;;17.45;13.00;;;;;;;;;;5039224;28;20375;-77
2022/03/07 08:50:48;;;;;;;16.55;12.95;;;;;;;;;;5030642;28;20037;-77
2022/03/07 08:53:16;;;;;;;16.05;12.02;;;;;;;;;;5035527;28;20064;-77
2022/03/07 08:55:42;;;;;;;17.00;12.38;;;;;;;;;;5034047;28;20035;-76
2022/03/07 08:58:09;;;;;;;16.52;12.13;;;;;;;;;;5031390;28;20025;-77
2022/03/07 09:00:35;;;;;;;15.52;12.38;;;;;;;;;;5034343;28;20048;-77
2022/03/07 09:03:04;;;;;;;14.82;12.32;;;;;;;;;;5032005;28;20039;-77
2022/03/07 09:05:30;;;;;;;13.13;11.63;;;;;;;;;;5040106;28;20021;-75
2022/03/07 09:07:57;;;;;;;18.05;12.35;;;;;;;;;;5035161;28;20495;-75
2022/03/07 09:10:23;;;;;;;19.45;13.02;;;;;;;;;;5034600;28;20036;-75
2022/03/07 09:12:50;;;;;;;15.60;12.57;;;;;;;;;;5037302;28;20039;-78
2022/03/07 09:15:16;;;;;;;15.45;11.82;;;;;;;;;;5037436;28;20029;-77
2022/03/07 09:17:42;;;;;;;15.05;12.13;;;;;;;;;;5030608;28;20033;-75
2022/03/07 09:20:11;;;;;;;15.07;12.25;;;;;;;;;;5031018;28;20029;-76
2022/03/07 09:22:37;;;;;;;15.48;12.48;;;;;;;;;;5032560;28;20029;-75
2022/03/07 09:25:04;;;;;;;16.85;12.77;;;;;;;;;;5032610;28;20025;-76
2022/03/07 09:27:30;;;;;;;14.77;12.50;;;;;;;;;;5042248;28;20021;-76
2022/03/07 09:29:57;;;;;;;15.85;12.38;;;;;;;;;;5032521;28;20021;-75
2022/03/07 09:32:23;;;;;;;19.63;13.60;;;;;;;;;;5036461;28;20033;-75
2022/03/07 09:34:49;;;;;;;15.63;12.07;;;;;;;;;;5033882;28;20043;-76
2022/03/07 09:37:16;;;;;;;15.85;12.63;;;;;;;;;;5040105;28;20074;-75
2022/03/07 09:39:42;;;;;;;18.10;12.20;;;;;;;;;;5073053;28;20048;-77
2022/03/07 09:42:09;;;;;;;16.65;12.50;;;;;;;;;;5032517;28;20040;-76
2022/03/07 09:44:36;;;;;;;15.70;12.13;;;;;;;;;;5029804;28;20074;-76
2022/03/07 09:47:03;;;;;;;16.05;12.40;;;;;;;;;;5067700;28;20065;-77
2022/03/07 09:49:30;;;;;;;15.82;12.30;;;;;;;;;;5033305;28;20048;-76
2022/03/07 09:51:56;;;;;;;14.52;11.70;;;;;;;;;;5033876;28;20021;-76
2022/03/07 09:54:26;;;;;;;17.73;12.40;;;;;;;;;;5034086;28;20033;-76
2022/03/07 09:56:53;;;;;;;15.68;12.43;;;;;;;;;;5030989;28;20025;-76
2022/03/07 09:59:20;;;;;;;15.13;12.50;;;;;;;;;;5032794;28;20086;-76
2022/03/07 10:01:57;;;;;;;19.25;12.43;;;;;;;;;;5034800;28;20047;-78
2022/03/07 10:04:24;;;;;;;15.10;11.35;;;;;;;;;;5029974;28;20062;-75
2022/03/07 10:06:50;;;;;;;18.52;12.38;;;;;;;;;;5034194;28;20073;-75
2022/03/07 10:09:21;;;;;;;16.13;12.85;;;;;;;;;;5038785;28;20046;-78
2022/03/07 10:11:51;;;;;;;16.50;13.13;;;;;;;;;;5026820;28;20068;-78
2022/03/07 10:14:18;;;;;;;17.30;13.35;;;;;;;;;;5032481;28;20026;-78
2022/03/07 10:16:44;;;;;;;16.75;12.60;;;;;;;;;;5034098;28;20033;-78
2022/03/07 10:19:14;;;;;;;17.33;13.55;;;;;;;;;;5032974;28;20029;-77
2022/03/07 10:21:48;;;;;;;16.70;13.70;;;;;;;;;;5032458;28;20034;-77
2022/03/07 10:24:14;;;;;;;16.60;12.60;;;;;;;;;;5033350;28;20019;-77
2022/03/07 10:26:41;;;;;;;16.25;13.13;;;;;;;;;;5036243;28;20030;-75
2022/03/07 10:29:07;;;;;;;18.80;14.05;;;;;;;;;;5035045;28;20091;-77
2022/03/07 10:31:33;;;;;;;16.52;12.68;;;;;;;;;;5033179;28;20028;-77
2022/03/07 10:34:03;;;;;;;17.90;13.90;;;;;;;;;;5027437;28;20021;-77
2022/03/07 10:36:37;;;;;;;18.13;13.20;;;;;;;;;;5031752;28;20383;-77
2022/03/07 10:39:05;;;;;;;19.27;14.15;;;;;;;;;;5028702;28;20028;-76
2022/03/07 10:41:42;;;;;;;18.88;13.52;;;;;;;;;;5044581;28;20055;-76
2022/03/07 10:44:10;;;;;;;18.88;12.65;;;;;;;;;;5034777;28;20036;-76
2022/03/07 10:46:38;;;;;;;19.52;13.40;;;;;;;;;;5032727;28;20026;-76
2022/03/07 10:49:08;;;;;;;17.45;13.98;;;;;;;;;;5033123;28;20043;-75
2022/03/07 10:51:34;;;;;;;19.27;14.38;;;;;;;;;;5029480;28;20445;-76
2022/03/07 10:54:12;;;;;;;19.20;14.80;;;;;;;;;;5043770;28;20032;-77
2022/03/07 10:56:49;;;;;;;20.83;14.32;;;;;;;;;;5039353;28;20487;-79
2022/03/07 10:59:25;;;;;;;17.90;13.93;;;;;;;;;;5044306;28;20524;-78
2022/03/07 11:01:58;;;;;;;20.98;13.63;;;;;;;;;;5034848;28;20494;-78
2022/03/07 11:04:25;;;;;;;17.13;13.65;;;;;;;;;;5059397;28;20026;-79
2022/03/07 11:06:52;;;;;;;24.08;14.82;;;;;;;;;;5025385;28;20056;-79
2022/03/07 11:09:18;;;;;;;19.98;13.48;;;;;;;;;;5032812;28;20039;-79
2022/03/07 11:11:45;;;;;;;19.00;14.15;;;;;;;;;;5028674;28;20505;-76
2022/03/07 11:14:13;;;;;;;18.55;13.07;;;;;;;;;;5034220;28;20033;-77
2022/03/07 11:16:40;;;;;;;17.50;13.90;;;;;;;;;;5032581;28;20032;-77
2022/03/07 11:19:07;;;;;;;15.88;12.93;;;;;;;;;;5032167;28;20017;-77
2022/03/07 11:21:36;;;;;;;22.25;12.43;;;;;;;;;;5032449;28;20045;-79
2022/03/07 11:24:02;;;;;;;18.13;14.05;;;;;;;;;;5027584;28;20033;-77
2022/03/07 11:26:28;;;;;;;16.33;13.25;;;;;;;;;;5028359;28;20032;-77
2022/03/07 11:28:57;;;;;;;16.52;12.75;;;;;;;;;;5080326;28;20029;-77
2022/03/07 11:31:26;;;;;;;16.90;13.45;;;;;;;;;;5065069;28;20071;-77
2022/03/07 11:33:54;;;;;;;18.33;12.65;;;;;;;;;;5030675;28;20022;-77
2022/03/07 11:36:22;;;;;;;16.70;12.35;;;;;;;;;;5032874;28;20074;-77
2022/03/07 11:38:52;;;;;;;16.55;12.43;;;;;;;;;;5028641;28;20025;-77
2022/03/07 11:41:28;;;;;;;13.50;10.93;;;;;;;;;;5031245;28;20049;-77
2022/03/07 11:44:00;;;;;;;19.83;12.65;;;;;;;;;;5032192;28;20439;-77
2022/03/07 11:46:26;;;;;;;14.18;12.10;;;;;;;;;;5032266;28;20375;-77
2022/03/07 11:48:53;;;;;;;16.70;12.10;;;;;;;;;;5014870;28;20041;-78
2022/03/07 11:51:21;;;;;;;14.25;12.00;;;;;;;;;;5032493;28;20025;-78
2022/03/07 11:53:48;;;;;;;14.52;12.00;;;;;;;;;;5028512;28;20024;-77
2022/03/07 11:56:18;;;;;;;17.75;12.65;;;;;;;;;;5032413;28;20021;-78
2022/03/07 11:58:50;;;;;;;16.00;12.63;;;;;;;;;;5032889;28;20026;-78
2022/03/07 12:01:17;;;;;;;18.95;12.63;;;;;;;;;;5032467;28;20026;-78
2022/03/07 12:03:43;;;;;;;16.65;12.00;;;;;;;;;;5032214;28;20033;-78
2022/03/07 12:06:11;;;;;;;17.20;12.13;;;;;;;;;;5035084;28;20017;-78
2022/03/07 12:08:54;;;;;;;15.95;12.35;;;;;;;;;;5029808;28;20037;-78
2022/03/07 12:11:39;;;;;;;15.52;11.40;;;;;;;;;;5045609;28;20398;-78
2022/03/07 12:14:06;;;;;;;17.90;11.25;;;;;;;;;;5069253;28;20021;-78
2022/03/07 12:16:34;;;;;;;15.52;11.82;;;;;;;;;;5034553;28;20033;-78
2022/03/07 12:19:07;;;;;;;15.18;10.82;;;;;;;;;;5035773;28;20017;-78
2022/03/07 12:21:34;;;;;;;14.48;11.68;;;;;;;;;;5034342;28;20045;-78
2022/03/07 12:24:00;;;;;;;13.35;11.25;;;;;;;;;;5032936;28;20026;-78
2022/03/07 12:26:28;;;;;;;13.18;10.98;;;;;;;;;;5032751;28;20029;-78
2022/03/07 12:28:54;;;;;;;18.08;11.32;;;;;;;;;;5051069;28;20029;-78
2022/03/07 12:31:21;;;;;;;14.85;11.18;;;;;;;;;;5036564;28;20024;-78
2022/03/07 12:33:48;;;;;;;13.13;10.90;;;;;;;;;;5035787;28;20040;-78
2022/03/07 12:36:15;;;;;;;13.02;10.82;;;;;;;;;;5032799;28;20017;-78
2022/03/07 12:38:49;;;;;;;16.13;11.05;;;;;;;;;;5033670;28;20014;-78
2022/03/07 12:41:16;;;;;;;11.02;9.52;;;;;;;;;;5043313;28;20051;-78
2022/03/07 12:43:44;;;;;;;12.00;10.10;;;;;;;;;;5032761;28;20045;-78
2022/03/07 12:46:12;;;;;;;12.20;10.50;;;;;;;;;;5040845;28;20033;-76
2022/03/07 12:48:42;;;;;;;13.40;10.98;;;;;;;;;;5039285;28;20027;-78
2022/03/07 12:51:11;;;;;;;12.77;10.23;;;;;;;;;;5045145;28;20032;-78
2022/03/07 12:53:56;;;;;;;11.80;10.05;;;;;;;;;;5030758;28;20017;-78
2022/03/07 12:56:24;;;;;;;15.55;9.63;;;;;;;;;;5040704;28;20037;-78
2022/03/07 12:58:57;;;;;;;13.52;10.18;;;;;;;;;;5034405;28;20043;-78
2022/03/07 13:01:24;;;;;;;12.90;10.40;;;;;;;;;;5034597;28;20425;-78
2022/03/07 13:03:52;;;;;;;9.77;8.77;;;;;;;;;;5036048;28;20036;-78
2022/03/07 13:06:22;;;;;;;13.95;9.70;;;;;;;;;;5045434;28;20029;-78
2022/03/07 13:08:53;;;;;;;13.80;9.30;;;;;;;;;;5030982;28;20032;-78
2022/03/07 13:11:41;;;;;;;12.15;9.65;;;;;;;;;;5034116;28;20421;-77
2022/03/07 13:14:08;;;;;;;10.40;9.30;;;;;;;;;;5038470;28;20036;-78
2022/03/07 13:16:35;;;;;;;11.48;9.25;;;;;;;;;;5034886;28;20029;-77
2022/03/07 13:19:01;;;;;;;13.30;9.38;;;;;;;;;;5032980;28;20516;-78
2022/03/07 13:21:30;;;;;;;14.05;9.15;;;;;;;;;;5034728;28;20773;-77
2022/03/07 13:23:57;;;;;;;9.70;8.70;;;;;;;;;;5031690;28;20033;-77
2022/03/07 13:26:25;;;;;;;10.18;9.07;;;;;;;;;;5032256;28;20033;-77
2022/03/07 13:29:06;;;;;;;10.68;8.80;;;;;;;;;;5046466;28;20390;-78
2022/03/07 13:31:46;;;;;;;9.77;8.60;;;;;;;;;;5037642;28;20029;-77
2022/03/07 13:34:14;;;;;;;10.10;8.75;;;;;;;;;;5033933;28;20095;-76
2022/03/07 13:36:45;;;;;;;10.35;8.70;;;;;;;;;;5034562;28;20090;-78
2022/03/07 13:39:25;;;;;;;11.50;8.65;;;;;;;;;;5033600;28;20019;-78
2022/03/07 13:42:02;;;;;;;9.23;7.47;;;;;;;;;;5015750;28;20067;-76
2022/03/07 13:44:30;;;;;;;9.73;8.57;;;;;;;;;;5031702;28;20034;-77
2022/03/07 13:47:08;;;;;;;11.35;7.93;;;;;;;;;;5036599;28;20478;-76
2022/03/07 13:49:45;;;;;;;8.85;7.60;;;;;;;;;;5045282;28;20032;-78
2022/03/07 13:52:17;;;;;;;10.45;7.65;;;;;;;;;;5033476;28;20473;-77
2022/03/07 13:54:45;;;;;;;10.35;7.63;;;;;;;;;;5032328;28;20048;-77
2022/03/07 13:57:11;;;;;;;10.23;8.43;;;;;;;;;;5030635;28;20020;-77
2022/03/07 13:59:37;;;;;;;11.18;8.00;;;;;;;;;;5029671;28;20032;-76
2022/03/07 14:02:17;;;;;;;8.25;7.35;;;;;;;;;;5032765;28;20622;-77
2022/03/07 14:05:00;;;;;;;11.05;8.05;;;;;;;;;;5033374;28;20490;-77
2022/03/07 14:07:28;;;;;;;8.35;7.15;;;;;;;;;;5037268;28;20035;-77
2022/03/07 14:09:55;;;;;;;10.65;8.57;;;;;;;;;;5038016;28;20017;-77
2022/03/07 14:12:26;;;;;;;10.07;7.28;;;;;;;;;;5032117;28;20032;-76
2022/03/07 14:15:25;;;;;;;11.13;7.72;;;;;;;;;;5030357;28;20025;-77
2022/03/07 14:17:55;;;;;;;10.43;8.07;;;;;;;;;;5013054;28;20044;-77
2022/03/07 14:20:22;;;;;;;9.57;7.47;;;;;;;;;;5008358;28;20045;-77